createdAt,value
2019-06-20T00:00:09.853Z,68.20
2019-06-20T00:02:39.042Z,68.40
2019-06-20T00:05:08.842Z,68.75
2019-06-20T00:07:37.951Z,68.92
2019-06-20T00:10:07.147Z,68.96
2019-06-20T00:12:36.253Z,69.15
2019-06-20T00:15:05.435Z,69.34
2019-06-20T00:17:34.549Z,69.41
2019-06-20T00:20:03.671Z,69.62
2019-06-20T00:22:32.813Z,69.94
2019-06-20T00:25:02.977Z,70.15
2019-06-20T00:27:32.191Z,70.15
2019-06-20T00:30:01.335Z,70.19
2019-06-20T00:32:30.450Z,69.89
2019-06-20T00:34:59.746Z,69.61
2019-06-20T00:37:28.909Z,69.84
2019-06-20T00:39:58.145Z,70.06
2019-06-20T00:42:27.317Z,70.16
2019-06-20T00:44:56.426Z,70.32
2019-06-20T00:47:25.517Z,70.46
2019-06-20T00:49:54.605Z,70.40
2019-06-20T00:52:23.703Z,70.46
2019-06-20T00:54:52.807Z,70.40
2019-06-20T00:57:28.815Z,70.57
2019-06-20T00:59:57.990Z,70.97
2019-06-20T01:02:27.061Z,71.20
2019-06-20T01:04:56.146Z,71.69
2019-06-20T01:07:25.377Z,71.88
2019-06-20T01:09:54.488Z,72.09
2019-06-20T01:12:23.575Z,72.11
2019-06-20T01:14:52.673Z,72.00
2019-06-20T01:17:21.879Z,71.86
2019-06-20T01:19:50.985Z,71.83
2019-06-20T01:22:20.087Z,72.10
2019-06-20T01:24:49.194Z,72.48
2019-06-20T01:27:18.304Z,72.61
2019-06-20T01:29:47.400Z,72.66
2019-06-20T01:32:16.499Z,72.56
2019-06-20T01:34:45.637Z,72.36
2019-06-20T01:37:14.784Z,72.42
2019-06-20T01:39:43.876Z,72.24
2019-06-20T01:42:12.957Z,72.30
2019-06-20T01:44:42.066Z,72.46
2019-06-20T01:47:11.160Z,72.39
2019-06-20T01:49:40.266Z,72.45
2019-06-20T01:52:09.380Z,72.33
2019-06-20T01:54:38.472Z,72.17
2019-06-20T01:57:07.608Z,72.17
2019-06-20T01:59:36.688Z,71.94
2019-06-20T02:02:05.942Z,71.79
2019-06-20T02:04:35.024Z,71.60
2019-06-20T02:07:04.244Z,71.55
2019-06-20T02:09:36.181Z,71.57
2019-06-20T02:12:05.387Z,71.53
2019-06-20T02:14:34.488Z,71.59
2019-06-20T02:17:03.618Z,71.54
2019-06-20T02:19:34.367Z,71.54
2019-06-20T02:22:03.446Z,71.61
2019-06-20T02:24:32.572Z,71.76
2019-06-20T02:27:01.782Z,71.52
2019-06-20T02:29:30.887Z,71.50
2019-06-20T02:31:59.965Z,71.28
2019-06-20T02:34:29.124Z,71.51
2019-06-20T02:36:58.189Z,71.68
2019-06-20T02:39:27.300Z,71.80
2019-06-20T02:41:56.378Z,71.86
2019-06-20T02:44:30.445Z,72.44
2019-06-20T02:46:56.294Z,72.45
2019-06-20T02:49:25.495Z,72.54
2019-06-20T02:51:55.039Z,72.45
2019-06-20T02:54:24.146Z,72.46
2019-06-20T02:56:53.250Z,71.94
2019-06-20T02:59:22.342Z,71.86
2019-06-20T03:01:51.486Z,71.86
2019-06-20T03:04:20.574Z,71.82
2019-06-20T03:06:49.809Z,71.53
2019-06-20T03:09:18.891Z,71.16
2019-06-20T03:11:48.006Z,71.21
2019-06-20T03:14:17.111Z,71.21
2019-06-20T03:16:46.238Z,71.20
2019-06-20T03:19:15.340Z,71.37
2019-06-20T03:21:44.441Z,71.28
2019-06-20T03:24:13.548Z,71.32
2019-06-20T03:26:42.644Z,71.42
2019-06-20T03:29:11.738Z,71.86
2019-06-20T03:31:40.830Z,72.00
2019-06-20T03:34:09.938Z,72.00
2019-06-20T03:36:39.021Z,72.16
2019-06-20T03:39:08.205Z,72.05
2019-06-20T03:41:37.312Z,71.81
2019-06-20T03:44:06.413Z,71.68
2019-06-20T03:46:35.527Z,71.60
2019-06-20T03:49:04.657Z,71.75
2019-06-20T03:51:33.857Z,72.04
2019-06-20T03:54:02.989Z,72.18
2019-06-20T03:56:32.217Z,72.42
2019-06-20T03:59:01.301Z,72.87
2019-06-20T04:01:30.397Z,73.26
2019-06-20T04:03:59.502Z,73.32
2019-06-20T04:06:28.605Z,73.55
2019-06-20T04:08:57.699Z,73.65
2019-06-20T04:11:26.797Z,73.57
2019-06-20T04:13:55.881Z,73.39
2019-06-20T04:16:25.075Z,73.72
2019-06-20T04:18:54.212Z,73.43
2019-06-20T04:21:23.365Z,73.16
2019-06-20T04:23:52.464Z,73.39
2019-06-20T04:26:21.589Z,73.29
2019-06-20T04:28:50.725Z,73.81
2019-06-20T04:31:19.823Z,73.89
2019-06-20T04:33:48.961Z,74.10
2019-06-20T04:36:18.081Z,73.91
2019-06-20T04:38:47.190Z,73.78
2019-06-20T04:41:16.394Z,73.64
2019-06-20T04:43:45.535Z,73.80
2019-06-20T04:46:21.263Z,73.33
2019-06-20T04:48:50.376Z,73.68
2019-06-20T04:51:19.492Z,73.42
2019-06-20T04:53:48.576Z,72.71
2019-06-20T04:56:17.695Z,73.02
2019-06-20T04:58:46.797Z,72.23
2019-06-20T05:01:15.899Z,72.59
2019-06-20T05:03:45.099Z,72.10
2019-06-20T05:06:14.144Z,71.49
2019-06-20T05:08:43.357Z,71.67
2019-06-20T05:11:12.468Z,71.28
2019-06-20T05:13:41.582Z,71.09
2019-06-20T05:16:10.671Z,71.36
2019-06-20T05:18:39.785Z,71.72
2019-06-20T05:21:08.907Z,71.54
2019-06-20T05:23:38.094Z,71.86
2019-06-20T05:26:07.305Z,71.61
2019-06-20T05:28:36.406Z,71.06
2019-06-20T05:31:05.558Z,69.91
2019-06-20T05:33:34.687Z,70.59
2019-06-20T05:36:03.782Z,71.17
2019-06-20T05:38:32.888Z,71.32
2019-06-20T05:41:02.016Z,71.19
2019-06-20T05:43:31.120Z,71.38
2019-06-20T05:46:09.527Z,71.68
2019-06-20T05:48:31.192Z,71.47
2019-06-20T05:51:00.446Z,71.01
2019-06-20T05:53:29.588Z,71.47
2019-06-20T05:55:58.698Z,70.74
2019-06-20T05:58:27.878Z,70.95
2019-06-20T06:00:57.075Z,70.95
2019-06-20T06:03:26.508Z,71.05
2019-06-20T06:05:55.620Z,70.54
2019-06-20T06:08:24.748Z,70.59
2019-06-20T06:10:53.872Z,70.76
2019-06-20T06:13:23.040Z,70.29
2019-06-20T06:15:52.311Z,70.02
2019-06-20T06:18:22.015Z,69.23
2019-06-20T06:20:51.193Z,70.62
2019-06-20T06:23:20.309Z,70.05
2019-06-20T06:25:49.463Z,70.34
2019-06-20T06:28:18.573Z,70.04
2019-06-20T06:30:47.704Z,70.20
2019-06-20T06:33:16.873Z,69.64
2019-06-20T06:35:46.010Z,69.91
2019-06-20T06:38:22.082Z,68.56
2019-06-20T06:40:46.151Z,68.42
2019-06-20T06:43:15.248Z,69.08
2019-06-20T06:45:44.371Z,68.80
2019-06-20T06:48:13.476Z,68.13
2019-06-20T06:50:42.730Z,67.92
2019-06-20T06:53:11.839Z,67.99
2019-06-20T06:55:41.002Z,68.12
2019-06-20T06:58:10.125Z,67.36
2019-06-20T07:00:45.426Z,67.67
2019-06-20T07:03:14.557Z,67.89
2019-06-20T07:05:43.793Z,67.13
2019-06-20T07:08:12.913Z,66.44
2019-06-20T07:10:42.051Z,65.77
2019-06-20T07:13:11.185Z,66.22
2019-06-20T07:15:40.309Z,65.79
2019-06-20T07:18:09.444Z,65.49
2019-06-20T07:20:38.569Z,65.46
2019-06-20T07:23:07.717Z,65.48
2019-06-20T07:25:36.835Z,65.43
2019-06-20T07:28:06.032Z,65.51
2019-06-20T07:30:35.195Z,65.49
2019-06-20T07:33:04.336Z,65.92
2019-06-20T07:35:33.477Z,65.54
2019-06-20T07:38:02.655Z,66.09
2019-06-20T07:40:31.781Z,66.54
2019-06-20T07:43:00.908Z,66.42
2019-06-20T07:45:30.019Z,66.52
2019-06-20T07:47:59.168Z,66.56
2019-06-20T07:50:28.290Z,66.67
2019-06-20T07:53:02.577Z,65.56
2019-06-20T07:55:28.507Z,65.91
2019-06-20T07:57:57.693Z,66.42
2019-06-20T08:00:27.615Z,66.53
2019-06-20T08:02:56.745Z,66.33
2019-06-20T08:05:25.902Z,66.15
2019-06-20T08:07:55.013Z,66.30
2019-06-20T08:10:25.103Z,66.77
2019-06-20T08:12:54.313Z,66.20
2019-06-20T08:15:24.837Z,66.27
2019-06-20T08:17:54.077Z,65.74
2019-06-20T08:20:24.959Z,64.85
2019-06-20T08:22:54.085Z,64.32
2019-06-20T08:25:23.257Z,63.21
2019-06-20T08:27:52.865Z,61.86
2019-06-20T08:30:29.878Z,60.77
2019-06-20T08:33:00.150Z,60.34
2019-06-20T08:35:31.408Z,59.17
2019-06-20T08:38:01.863Z,58.91
2019-06-20T08:40:36.121Z,56.26
2019-06-20T08:43:06.254Z,56.58
2019-06-20T08:45:37.846Z,56.95
2019-06-20T08:48:07.447Z,56.23
2019-06-20T08:50:36.941Z,55.28
2019-06-20T08:53:06.543Z,53.81
2019-06-20T08:55:35.871Z,53.96
2019-06-20T08:58:05.616Z,54.93
2019-06-20T09:00:36.864Z,55.19
2019-06-20T09:03:07.072Z,55.40
2019-06-20T09:05:36.418Z,55.15
2019-06-20T09:08:06.268Z,54.91
2019-06-20T09:10:39.561Z,55.13
2019-06-20T09:13:10.061Z,55.41
2019-06-20T09:15:39.581Z,55.61
2019-06-20T09:18:08.916Z,55.99
2019-06-20T09:20:38.317Z,54.81
2019-06-20T09:23:07.427Z,53.84
2019-06-20T09:25:37.113Z,53.22
2019-06-20T09:28:06.976Z,52.00
2019-06-20T09:30:37.606Z,51.76
2019-06-20T09:33:06.940Z,51.52
2019-06-20T09:35:36.228Z,51.08
2019-06-20T09:38:05.474Z,50.95
2019-06-20T09:40:34.705Z,51.36
2019-06-20T09:43:04.057Z,51.96
2019-06-20T09:45:34.571Z,52.56
2019-06-20T09:48:03.720Z,54.21
2019-06-20T09:50:32.964Z,54.26
2019-06-20T09:53:02.084Z,54.59
2019-06-20T09:55:31.265Z,54.91
2019-06-20T09:58:00.402Z,55.14
2019-06-20T10:00:30.028Z,55.28
2019-06-20T10:02:59.202Z,54.94
2019-06-20T10:05:28.502Z,54.13
2019-06-20T10:07:57.661Z,53.98
2019-06-20T10:10:30.178Z,53.36
2019-06-20T10:12:59.748Z,53.63
2019-06-20T10:15:30.538Z,53.10
2019-06-20T10:18:00.112Z,52.06
2019-06-20T10:20:29.556Z,51.26
2019-06-20T10:22:58.718Z,50.38
2019-06-20T10:25:27.840Z,49.92
2019-06-20T10:27:57.942Z,49.45
2019-06-20T10:30:28.592Z,49.85
2019-06-20T10:32:57.965Z,48.73
2019-06-20T10:35:27.150Z,50.32
2019-06-20T10:37:57.229Z,50.79
2019-06-20T10:40:27.827Z,51.13
2019-06-20T10:42:57.151Z,50.98
2019-06-20T10:45:27.048Z,50.87
2019-06-20T10:47:56.260Z,51.00
2019-06-20T10:50:25.537Z,50.79
2019-06-20T10:52:57.661Z,49.95
2019-06-20T10:55:26.900Z,49.56
2019-06-20T10:57:56.054Z,49.92
2019-06-20T11:00:31.320Z,49.58
2019-06-20T11:02:57.227Z,49.58
2019-06-20T11:05:26.480Z,49.64
2019-06-20T11:07:55.617Z,50.03
2019-06-20T11:10:25.073Z,50.47
2019-06-20T11:12:56.201Z,50.62
2019-06-20T11:15:25.381Z,50.75
2019-06-20T11:17:56.598Z,51.37
2019-06-20T11:20:26.912Z,51.18
2019-06-20T11:22:56.067Z,49.71
2019-06-20T11:25:25.224Z,49.95
2019-06-20T11:27:54.371Z,48.76
2019-06-20T11:30:24.196Z,48.72
2019-06-20T11:32:53.364Z,48.92
2019-06-20T11:35:22.509Z,49.43
2019-06-20T11:37:52.755Z,49.34
2019-06-20T11:40:22.271Z,49.41
2019-06-20T11:42:51.452Z,48.87
2019-06-20T11:45:21.394Z,48.57
2019-06-20T11:48:40.620Z,47.97
2019-06-20T11:51:10.208Z,47.97
2019-06-20T11:53:40.596Z,46.68
2019-06-20T11:56:09.695Z,47.21
2019-06-20T11:58:38.912Z,47.21
2019-06-20T12:01:08.031Z,46.93
2019-06-20T12:03:39.041Z,46.57
2019-06-20T12:06:08.034Z,45.71
2019-06-20T12:08:39.110Z,45.45
2019-06-20T12:11:07.999Z,43.51
2019-06-20T12:13:38.737Z,43.43
2019-06-20T12:16:07.945Z,44.42
2019-06-20T12:18:39.750Z,44.71
2019-06-20T12:21:07.917Z,44.62
2019-06-20T12:23:38.084Z,44.99
2019-06-20T12:26:08.353Z,43.84
2019-06-20T12:28:38.973Z,43.89
2019-06-20T12:31:18.893Z,44.10
2019-06-20T12:33:40.571Z,42.11
2019-06-20T12:36:10.111Z,43.09
2019-06-20T12:38:39.901Z,43.36
2019-06-20T12:41:10.122Z,44.55
2019-06-20T12:43:40.324Z,45.18
2019-06-20T12:46:09.473Z,45.51
2019-06-20T12:48:39.904Z,45.64
2019-06-20T12:51:09.500Z,45.65
2019-06-20T12:53:39.299Z,44.78
2019-06-20T12:56:09.456Z,43.88
2019-06-20T12:58:39.453Z,43.64
2019-06-20T13:01:09.627Z,44.41
2019-06-20T13:03:40.336Z,44.70
2019-06-20T13:06:09.682Z,45.30
2019-06-20T13:08:40.371Z,45.20
2019-06-20T13:11:09.678Z,45.33
2019-06-20T13:13:40.223Z,44.14
2019-06-20T13:16:09.626Z,44.06
2019-06-20T13:18:39.612Z,44.32
2019-06-20T13:21:09.584Z,43.84
2019-06-20T13:23:40.199Z,43.67
2019-06-20T13:26:09.550Z,43.41
2019-06-20T13:28:54.179Z,43.37
2019-06-20T13:31:09.532Z,43.56
2019-06-20T13:33:39.581Z,43.82
2019-06-20T13:36:09.752Z,43.45
2019-06-20T13:38:39.896Z,42.88
2019-06-20T13:41:09.734Z,43.01
2019-06-20T13:43:38.829Z,43.07
2019-06-20T13:46:07.914Z,43.06
2019-06-20T13:48:37.028Z,43.00
2019-06-20T13:51:06.164Z,42.63
2019-06-20T13:53:35.298Z,42.54
2019-06-20T13:56:04.441Z,41.78
2019-06-20T13:58:33.565Z,41.63
2019-06-20T14:01:02.649Z,40.10
2019-06-20T14:03:31.796Z,40.27
2019-06-20T14:06:00.899Z,40.00
2019-06-20T14:08:30.005Z,39.73
2019-06-20T14:10:59.159Z,38.85
2019-06-20T14:13:28.266Z,39.25
2019-06-20T14:15:57.554Z,39.70
2019-06-20T14:18:26.699Z,39.49
2019-06-20T14:20:55.833Z,38.56
2019-06-20T14:23:24.964Z,38.76
2019-06-20T14:25:54.086Z,38.57
2019-06-20T14:28:23.222Z,38.10
2019-06-20T14:30:52.726Z,38.47
2019-06-20T14:33:21.851Z,38.04
2019-06-20T14:35:51.234Z,37.98
2019-06-20T14:38:20.488Z,37.65
2019-06-20T14:40:49.951Z,38.03
2019-06-20T14:43:19.143Z,38.26
2019-06-20T14:45:48.692Z,38.12
2019-06-20T14:48:17.932Z,38.30
2019-06-20T14:50:47.830Z,38.81
2019-06-20T14:53:18.019Z,39.16
2019-06-20T14:55:47.688Z,39.22
2019-06-20T14:58:16.819Z,39.06
2019-06-20T15:00:46.968Z,37.91
2019-06-20T15:03:16.861Z,38.46
2019-06-20T15:05:46.587Z,38.04
2019-06-20T15:08:16.245Z,37.22
2019-06-20T15:10:46.626Z,38.72
2019-06-20T15:13:16.199Z,39.30
2019-06-20T15:15:46.612Z,40.09
2019-06-20T15:18:16.154Z,40.13
2019-06-20T15:20:46.570Z,39.96
2019-06-20T15:23:16.217Z,40.32
2019-06-20T15:25:45.837Z,40.50
2019-06-20T15:28:16.142Z,40.61
2019-06-20T15:30:47.090Z,40.77
2019-06-20T15:33:16.193Z,40.14
2019-06-20T15:35:45.301Z,39.42
2019-06-20T15:38:14.421Z,39.31
2019-06-20T15:40:43.621Z,39.72
2019-06-20T15:43:12.734Z,40.74
2019-06-20T15:45:41.827Z,40.34
2019-06-20T15:48:10.967Z,40.87
2019-06-20T15:50:40.092Z,40.59
2019-06-20T15:53:09.230Z,40.34
2019-06-20T15:55:38.369Z,40.70
2019-06-20T15:58:07.501Z,41.32
2019-06-20T16:00:36.629Z,42.20
2019-06-20T16:03:09.930Z,42.26
2019-06-20T16:05:36.594Z,42.31
2019-06-20T16:08:05.709Z,42.22
2019-06-20T16:10:34.817Z,42.29
2019-06-20T16:13:03.966Z,41.97
2019-06-20T16:15:33.075Z,42.37
2019-06-20T16:18:02.280Z,42.70
2019-06-20T16:20:31.374Z,43.09
2019-06-20T16:23:00.492Z,43.24
2019-06-20T16:25:29.619Z,43.38
2019-06-20T16:27:58.761Z,43.53
2019-06-20T16:30:27.954Z,43.76
2019-06-20T16:32:57.166Z,43.98
2019-06-20T16:35:26.267Z,44.09
2019-06-20T16:37:55.401Z,44.05
2019-06-20T16:40:50.527Z,44.15
2019-06-20T16:43:19.675Z,44.58
2019-06-20T16:45:48.775Z,44.75
2019-06-20T16:48:17.877Z,44.18
2019-06-20T16:50:47.088Z,44.18
2019-06-20T16:53:16.302Z,44.11
2019-06-20T16:55:45.433Z,44.53
2019-06-20T16:58:14.607Z,44.51
2019-06-20T17:00:43.830Z,44.67
2019-06-20T17:03:12.874Z,44.69
2019-06-20T17:05:42.040Z,45.02
2019-06-20T17:08:11.166Z,45.21
2019-06-20T17:10:40.368Z,45.25
2019-06-20T17:13:09.512Z,45.73
2019-06-20T17:15:38.611Z,45.44
2019-06-20T17:18:07.743Z,45.71
2019-06-20T17:20:36.888Z,45.51
2019-06-20T17:23:06.551Z,45.93
2019-06-20T17:25:35.669Z,46.39
2019-06-20T17:28:05.186Z,46.68
2019-06-20T17:30:34.320Z,47.20
2019-06-20T17:33:03.436Z,48.26
2019-06-20T17:35:32.618Z,48.84
2019-06-20T17:38:01.744Z,49.64
2019-06-20T17:40:31.098Z,50.26
2019-06-20T17:43:00.231Z,50.24
2019-06-20T17:45:29.618Z,50.41
2019-06-20T17:47:58.822Z,50.60
2019-06-20T17:50:27.948Z,50.97
2019-06-20T17:52:57.084Z,51.74
2019-06-20T17:55:26.215Z,52.05
2019-06-20T17:57:55.311Z,52.31
2019-06-20T18:00:24.918Z,52.36
2019-06-20T18:02:54.019Z,52.57
2019-06-20T18:05:23.274Z,52.93
2019-06-20T18:07:52.523Z,53.13
2019-06-20T18:10:22.056Z,53.21
2019-06-20T18:12:51.222Z,53.48
2019-06-20T18:15:20.458Z,53.54
2019-06-20T18:17:49.574Z,53.39
2019-06-20T18:20:18.947Z,53.28
2019-06-20T18:22:48.064Z,53.46
2019-06-20T18:25:17.312Z,53.77
2019-06-20T18:27:46.468Z,53.95
2019-06-20T18:30:15.686Z,54.11
2019-06-20T18:32:44.810Z,54.34
2019-06-20T18:35:14.203Z,54.55
2019-06-20T18:37:43.333Z,55.36
2019-06-20T18:40:12.450Z,56.07
2019-06-20T18:42:41.671Z,56.93
2019-06-20T18:45:11.282Z,57.60
2019-06-20T18:47:40.379Z,57.83
2019-06-20T18:50:09.799Z,58.19
2019-06-20T18:52:51.553Z,58.00
2019-06-20T18:55:09.867Z,58.02
2019-06-20T18:57:39.099Z,58.60
2019-06-20T19:00:08.465Z,58.73
2019-06-20T19:02:37.563Z,58.38
2019-06-20T19:05:07.273Z,58.25
2019-06-20T19:07:36.415Z,58.35
2019-06-20T19:10:05.994Z,58.27
2019-06-20T19:12:35.161Z,58.65
2019-06-20T19:15:04.703Z,59.42
2019-06-20T19:17:33.915Z,60.59
2019-06-20T19:20:03.099Z,61.36
2019-06-20T19:22:32.252Z,61.67
2019-06-20T19:25:03.931Z,61.88
2019-06-20T19:27:45.538Z,62.10
2019-06-20T19:30:03.128Z,62.40
2019-06-20T19:32:32.230Z,62.59
2019-06-20T19:35:02.795Z,62.65
2019-06-20T19:37:32.049Z,61.81
2019-06-20T19:40:01.217Z,60.14
2019-06-20T19:42:30.305Z,58.81
2019-06-20T19:44:59.449Z,58.48
2019-06-20T19:47:28.553Z,57.76
2019-06-20T19:49:57.694Z,56.60
2019-06-20T19:52:26.826Z,56.38
2019-06-20T19:54:55.962Z,56.42
2019-06-20T19:57:25.131Z,56.83
2019-06-20T19:59:54.261Z,57.13
2019-06-20T20:02:23.379Z,58.02
2019-06-20T20:04:52.654Z,57.45
2019-06-20T20:07:21.846Z,57.64
2019-06-20T20:09:51.123Z,57.58
2019-06-20T20:12:20.275Z,57.59
2019-06-20T20:14:49.436Z,57.54
2019-06-20T20:17:18.592Z,57.61
2019-06-20T20:19:47.714Z,57.46
2019-06-20T20:22:16.903Z,57.86
2019-06-20T20:24:46.074Z,58.09
2019-06-20T20:27:15.173Z,58.41
2019-06-20T20:29:44.326Z,58.74
2019-06-20T20:32:13.457Z,59.13
2019-06-20T20:34:42.575Z,59.29
2019-06-20T20:37:11.694Z,59.55
2019-06-20T20:39:40.837Z,59.93
2019-06-20T20:42:09.949Z,60.26
2019-06-20T20:44:39.088Z,60.62
2019-06-20T20:47:08.222Z,60.68
2019-06-20T20:49:37.372Z,60.97
2019-06-20T20:52:06.492Z,61.00
2019-06-20T20:54:35.649Z,61.31
2019-06-20T20:57:04.788Z,61.34
2019-06-20T20:59:34.024Z,61.44
2019-06-20T21:02:03.186Z,61.58
2019-06-20T21:04:32.297Z,61.70
2019-06-20T21:07:01.429Z,61.82
2019-06-20T21:09:30.562Z,62.04
2019-06-20T21:11:59.677Z,62.19
2019-06-20T21:14:28.792Z,62.19
2019-06-20T21:16:57.938Z,62.26
2019-06-20T21:19:27.071Z,62.50
2019-06-20T21:21:56.177Z,62.59
2019-06-20T21:24:25.305Z,62.33
2019-06-20T21:26:54.434Z,62.25
2019-06-20T21:29:23.552Z,62.32
2019-06-20T21:31:52.669Z,62.26
2019-06-20T21:34:21.948Z,62.33
2019-06-20T21:36:51.168Z,62.34
2019-06-20T21:39:20.337Z,62.23
2019-06-20T21:41:49.500Z,62.12
2019-06-20T21:44:18.614Z,62.23
2019-06-20T21:46:47.741Z,62.12
2019-06-20T21:49:16.864Z,62.08
2019-06-20T21:51:45.995Z,62.25
2019-06-20T21:54:15.096Z,62.36
2019-06-20T21:56:44.232Z,62.28
2019-06-20T21:59:13.338Z,62.13
2019-06-20T22:01:42.612Z,62.03
2019-06-20T22:04:12.264Z,62.22
2019-06-20T22:06:41.370Z,62.02
2019-06-20T22:09:10.488Z,62.09
2019-06-20T22:11:39.643Z,62.13
2019-06-20T22:14:08.785Z,62.08
2019-06-20T22:16:37.931Z,62.22
2019-06-20T22:19:07.027Z,62.35
2019-06-20T22:21:36.156Z,62.48
2019-06-20T22:24:06.576Z,62.77
2019-06-20T22:26:35.688Z,62.95
2019-06-20T22:29:04.944Z,63.13
2019-06-20T22:31:34.078Z,63.25
2019-06-20T22:34:03.273Z,63.53
2019-06-20T22:36:40.224Z,63.62
2019-06-20T22:39:03.754Z,63.67
2019-06-20T22:41:32.868Z,63.94
2019-06-20T22:44:01.970Z,64.10
2019-06-20T22:46:31.105Z,64.02
2019-06-20T22:49:00.220Z,64.01
2019-06-20T22:51:29.346Z,64.04
2019-06-20T22:53:58.467Z,64.31
2019-06-20T22:56:27.571Z,64.28
2019-06-20T22:58:56.713Z,64.17
2019-06-20T23:01:25.811Z,64.19
2019-06-20T23:03:54.938Z,64.24
2019-06-20T23:06:24.032Z,64.40
2019-06-20T23:08:53.259Z,64.73
2019-06-20T23:11:22.371Z,64.95
2019-06-20T23:13:51.489Z,65.15
2019-06-20T23:16:20.632Z,65.17
2019-06-20T23:18:49.751Z,65.16
2019-06-20T23:21:18.865Z,65.44
2019-06-20T23:23:47.977Z,65.50
2019-06-20T23:26:17.073Z,65.45
2019-06-20T23:28:48.421Z,65.38
2019-06-20T23:31:17.631Z,65.41
2019-06-20T23:33:46.730Z,65.62
2019-06-20T23:36:15.851Z,65.88
2019-06-20T23:38:44.947Z,66.05
2019-06-20T23:41:14.093Z,66.15
2019-06-20T23:43:43.214Z,66.78
2019-06-20T23:46:12.337Z,66.73
2019-06-20T23:48:41.443Z,66.19
2019-06-20T23:51:24.715Z,66.18
2019-06-20T23:53:41.515Z,66.71
2019-06-20T23:56:10.636Z,66.66
2019-06-20T23:58:39.720Z,66.74
